BENVENUTI AL 154° GRUPPO VIRTUALE

Main Forum 1 topic

This is the main forum section. It serves as a container for categories for your topics.
Category
Presentazione nuovi iscritti e news
Subcategory: MI PRESENTO, NEWS, DIARIO DEL 154°...
Welcome to Kunena!
by Kunena
5 years 8 months ago
    Total users online: 0 Members and 7 Guests Online
  • Total Messages: 12
  • Total Sections: 1
  • Today Open: 0
  • Today Total Answer: 0
  • Total Subjects: 10
  • Total Categories: 9
  • Yesterday Open: 0
  • Yesterday Total Answer: 0
  • Total Users: 10
  • Latest Member: Lupo
Time to create page: 0.746 seconds

METAR & TAF

[Source: ADDS]
METAR
LIPL 060855Z 28004KT CAVOK 25/14 Q1016 RMK SKC VIS MIN 9999 WIND THR31 28004KT WIND THR13 31005KT BLU =
LIPL 060800Z 0609/0618 VRB03KT CAVOK
TAF
LIPL 060800Z 0609/0618 VRB03KT CAVOK =

Notice: Undefined index: sun in /web/htdocs/www.154gruppovirtuale.it/home/modules/mod_wx/tmpl/default.php on line 13

Link utili

 
 
 

Network

Simulation Platform